sensor_id;sensor_type;location;lat;lon;timestamp;temperature;humidity
19892;DHT22;10108;50.142;8.724;2023-04-25T00:00:19;10.00;99.90
19892;DHT22;10108;50.142;8.724;2023-04-25T00:02:46;10.00;99.90
19892;DHT22;10108;50.142;8.724;2023-04-25T00:05:12;10.00;99.90
19892;DHT22;10108;50.142;8.724;2023-04-25T00:07:41;9.90;99.90
19892;DHT22;10108;50.142;8.724;2023-04-25T00:10:09;9.90;99.90
19892;DHT22;10108;50.142;8.724;2023-04-25T00:12:37;9.90;99.90
19892;DHT22;10108;50.142;8.724;2023-04-25T00:15:03;9.90;99.90
19892;DHT22;10108;50.142;8.724;2023-04-25T00:17:30;9.90;99.90
19892;DHT22;10108;50.142;8.724;2023-04-25T00:19:57;9.90;99.90
19892;DHT22;10108;50.142;8.724;2023-04-25T00:22:24;9.90;99.90
19892;DHT22;10108;50.142;8.724;2023-04-25T00:24:50;9.80;99.90
19892;DHT22;10108;50.142;8.724;2023-04-25T00:27:16;9.80;99.90
19892;DHT22;10108;50.142;8.724;2023-04-25T00:29:42;9.80;99.90
19892;DHT22;10108;50.142;8.724;2023-04-25T00:32:09;9.70;99.90
19892;DHT22;10108;50.142;8.724;2023-04-25T00:34:35;9.70;99.90
19892;DHT22;10108;50.142;8.724;2023-04-25T00:37:01;9.70;99.90
19892;DHT22;10108;50.142;8.724;2023-04-25T00:39:28;9.70;99.90
19892;DHT22;10108;50.142;8.724;2023-04-25T00:41:54;9.70;99.90
19892;DHT22;10108;50.142;8.724;2023-04-25T00:44:21;9.80;99.90
19892;DHT22;10108;50.142;8.724;2023-04-25T00:46:48;9.70;99.90
19892;DHT22;10108;50.142;8.724;2023-04-25T00:49:17;9.80;99.90
19892;DHT22;10108;50.142;8.724;2023-04-25T00:51:43;9.80;99.90
19892;DHT22;10108;50.142;8.724;2023-04-25T00:54:11;9.90;99.90
19892;DHT22;10108;50.142;8.724;2023-04-25T00:56:38;9.90;99.90
19892;DHT22;10108;50.142;8.724;2023-04-25T00:59:04;9.90;99.90
19892;DHT22;10108;50.142;8.724;2023-04-25T01:01:30;9.90;99.90
19892;DHT22;10108;50.142;8.724;2023-04-25T01:03:58;9.90;99.90
19892;DHT22;10108;50.142;8.724;2023-04-25T01:06:25;9.90;99.90
19892;DHT22;10108;50.142;8.724;2023-04-25T01:08:51;9.90;99.90
19892;DHT22;10108;50.142;8.724;2023-04-25T01:11:17;9.90;99.90
19892;DHT22;10108;50.142;8.724;2023-04-25T01:13:44;10.00;99.90
19892;DHT22;10108;50.142;8.724;2023-04-25T01:16:10;10.00;99.90
19892;DHT22;10108;50.142;8.724;2023-04-25T01:18:38;10.00;99.90
19892;DHT22;10108;50.142;8.724;2023-04-25T01:21:10;10.00;99.90
19892;DHT22;10108;50.142;8.724;2023-04-25T01:23:38;10.00;99.90
19892;DHT22;10108;50.142;8.724;2023-04-25T01:26:09;10.00;99.90
19892;DHT22;10108;50.142;8.724;2023-04-25T01:28:36;10.00;99.90
19892;DHT22;10108;50.142;8.724;2023-04-25T01:31:03;10.00;99.90
19892;DHT22;10108;50.142;8.724;2023-04-25T01:33:30;10.00;99.90
19892;DHT22;10108;50.142;8.724;2023-04-25T01:35:56;10.00;99.90
19892;DHT22;10108;50.142;8.724;2023-04-25T01:38:22;10.00;99.90
19892;DHT22;10108;50.142;8.724;2023-04-25T01:40:49;10.00;99.90
19892;DHT22;10108;50.142;8.724;2023-04-25T01:43:18;10.00;99.90
19892;DHT22;10108;50.142;8.724;2023-04-25T01:45:45;10.10;99.90
19892;DHT22;10108;50.142;8.724;2023-04-25T01:48:13;10.10;99.90
19892;DHT22;10108;50.142;8.724;2023-04-25T01:50:40;10.10;99.90
19892;DHT22;10108;50.142;8.724;2023-04-25T01:53:09;10.00;99.90
19892;DHT22;10108;50.142;8.724;2023-04-25T01:55:36;10.00;99.90
19892;DHT22;10108;50.142;8.724;2023-04-25T01:58:07;10.00;99.90
19892;DHT22;10108;50.142;8.724;2023-04-25T02:00:53;10.00;99.90
19892;DHT22;10108;50.142;8.724;2023-04-25T02:03:19;9.90;99.90
19892;DHT22;10108;50.142;8.724;2023-04-25T02:05:46;9.90;99.90
19892;DHT22;10108;50.142;8.724;2023-04-25T02:08:13;9.90;99.90
19892;DHT22;10108;50.142;8.724;2023-04-25T02:10:39;9.90;99.90
19892;DHT22;10108;50.142;8.724;2023-04-25T02:13:14;9.80;99.90
19892;DHT22;10108;50.142;8.724;2023-04-25T02:15:57;9.70;99.90
19892;DHT22;10108;50.142;8.724;2023-04-25T02:18:23;9.70;99.90
19892;DHT22;10108;50.142;8.724;2023-04-25T02:20:49;9.60;99.90
19892;DHT22;10108;50.142;8.724;2023-04-25T02:23:15;9.50;99.90
19892;DHT22;10108;50.142;8.724;2023-04-25T02:25:42;9.40;99.90
19892;DHT22;10108;50.142;8.724;2023-04-25T02:28:08;9.40;99.90
19892;DHT22;10108;50.142;8.724;2023-04-25T02:30:35;9.40;99.90
19892;DHT22;10108;50.142;8.724;2023-04-25T02:33:04;9.40;99.90
19892;DHT22;10108;50.142;8.724;2023-04-25T02:35:30;9.40;99.90
19892;DHT22;10108;50.142;8.724;2023-04-25T02:37:56;9.30;99.90
19892;DHT22;10108;50.142;8.724;2023-04-25T02:40:23;9.30;99.90
19892;DHT22;10108;50.142;8.724;2023-04-25T02:42:49;9.30;99.90
19892;DHT22;10108;50.142;8.724;2023-04-25T02:45:15;9.30;99.90
19892;DHT22;10108;50.142;8.724;2023-04-25T02:47:41;9.30;99.90
19892;DHT22;10108;50.142;8.724;2023-04-25T02:50:07;9.30;99.90
19892;DHT22;10108;50.142;8.724;2023-04-25T02:52:34;9.20;99.90
19892;DHT22;10108;50.142;8.724;2023-04-25T02:55:09;9.20;99.90
19892;DHT22;10108;50.142;8.724;2023-04-25T02:57:38;9.20;99.90
19892;DHT22;10108;50.142;8.724;2023-04-25T03:00:04;9.20;99.90
19892;DHT22;10108;50.142;8.724;2023-04-25T03:02:31;9.30;99.90
19892;DHT22;10108;50.142;8.724;2023-04-25T03:04:57;9.20;99.90
19892;DHT22;10108;50.142;8.724;2023-04-25T03:07:24;9.20;99.90
19892;DHT22;10108;50.142;8.724;2023-04-25T03:09:50;9.20;99.90
19892;DHT22;10108;50.142;8.724;2023-04-25T03:12:16;9.20;99.90
19892;DHT22;10108;50.142;8.724;2023-04-25T03:14:43;9.20;99.90
19892;DHT22;10108;50.142;8.724;2023-04-25T03:17:09;9.20;99.90
19892;DHT22;10108;50.142;8.724;2023-04-25T03:19:35;9.30;99.90
19892;DHT22;10108;50.142;8.724;2023-04-25T03:22:01;9.30;99.90
19892;DHT22;10108;50.142;8.724;2023-04-25T03:24:28;9.30;99.90
19892;DHT22;10108;50.142;8.724;2023-04-25T03:26:54;9.30;99.90
19892;DHT22;10108;50.142;8.724;2023-04-25T03:29:21;9.40;99.90
19892;DHT22;10108;50.142;8.724;2023-04-25T03:31:50;9.40;99.90
19892;DHT22;10108;50.142;8.724;2023-04-25T03:34:16;9.30;99.90
19892;DHT22;10108;50.142;8.724;2023-04-25T03:36:42;9.30;99.90
19892;DHT22;10108;50.142;8.724;2023-04-25T03:39:09;9.30;99.90
19892;DHT22;10108;50.142;8.724;2023-04-25T03:41:36;9.30;99.90
19892;DHT22;10108;50.142;8.724;2023-04-25T03:44:08;9.40;99.90
19892;DHT22;10108;50.142;8.724;2023-04-25T03:46:34;9.40;99.90
19892;DHT22;10108;50.142;8.724;2023-04-25T03:49:01;9.40;99.90
19892;DHT22;10108;50.142;8.724;2023-04-25T03:51:40;9.40;99.90
19892;DHT22;10108;50.142;8.724;2023-04-25T03:54:06;9.40;99.90
19892;DHT22;10108;50.142;8.724;2023-04-25T03:56:33;9.40;99.90
19892;DHT22;10108;50.142;8.724;2023-04-25T03:59:06;9.40;99.90
19892;DHT22;10108;50.142;8.724;2023-04-25T04:01:32;9.40;99.90
19892;DHT22;10108;50.142;8.724;2023-04-25T04:03:58;9.40;99.90
19892;DHT22;10108;50.142;8.724;2023-04-25T04:06:25;9.40;99.90
19892;DHT22;10108;50.142;8.724;2023-04-25T04:08:58;9.40;99.90
19892;DHT22;10108;50.142;8.724;2023-04-25T04:11:25;9.30;99.90
19892;DHT22;10108;50.142;8.724;2023-04-25T04:13:51;9.40;99.90
19892;DHT22;10108;50.142;8.724;2023-04-25T04:16:18;9.40;99.90
19892;DHT22;10108;50.142;8.724;2023-04-25T04:18:45;9.40;99.90
19892;DHT22;10108;50.142;8.724;2023-04-25T04:21:11;9.40;99.90
19892;DHT22;10108;50.142;8.724;2023-04-25T04:23:40;9.40;99.90
19892;DHT22;10108;50.142;8.724;2023-04-25T04:26:07;9.40;99.90
19892;DHT22;10108;50.142;8.724;2023-04-25T04:28:51;9.40;99.90
19892;DHT22;10108;50.142;8.724;2023-04-25T04:31:29;9.40;99.90
19892;DHT22;10108;50.142;8.724;2023-04-25T04:33:56;9.40;99.90
19892;DHT22;10108;50.142;8.724;2023-04-25T04:36:22;9.40;99.90
19892;DHT22;10108;50.142;8.724;2023-04-25T04:38:49;9.40;99.90
19892;DHT22;10108;50.142;8.724;2023-04-25T04:41:28;9.40;99.90
19892;DHT22;10108;50.142;8.724;2023-04-25T04:44:07;9.40;99.90
19892;DHT22;10108;50.142;8.724;2023-04-25T04:46:42;9.40;99.90
19892;DHT22;10108;50.142;8.724;2023-04-25T04:49:18;9.40;99.90
19892;DHT22;10108;50.142;8.724;2023-04-25T04:52:04;9.40;99.90
19892;DHT22;10108;50.142;8.724;2023-04-25T04:54:52;9.40;99.90
19892;DHT22;10108;50.142;8.724;2023-04-25T04:57:32;9.40;99.90
19892;DHT22;10108;50.142;8.724;2023-04-25T05:00:22;9.40;99.90
19892;DHT22;10108;50.142;8.724;2023-04-25T05:03:06;9.40;99.90
19892;DHT22;10108;50.142;8.724;2023-04-25T05:05:58;9.40;99.90
19892;DHT22;10108;50.142;8.724;2023-04-25T05:08:44;9.40;99.90
19892;DHT22;10108;50.142;8.724;2023-04-25T05:11:28;9.50;99.90
19892;DHT22;10108;50.142;8.724;2023-04-25T05:14:23;9.40;99.90
19892;DHT22;10108;50.142;8.724;2023-04-25T05:17:25;9.40;99.90
19892;DHT22;10108;50.142;8.724;2023-04-25T05:20:06;9.40;99.90
19892;DHT22;10108;50.142;8.724;2023-04-25T05:22:50;9.50;99.90
19892;DHT22;10108;50.142;8.724;2023-04-25T05:25:39;9.50;99.90
19892;DHT22;10108;50.142;8.724;2023-04-25T05:28:13;9.60;99.90
19892;DHT22;10108;50.142;8.724;2023-04-25T05:30:53;9.60;99.90
19892;DHT22;10108;50.142;8.724;2023-04-25T05:33:26;9.60;99.90
19892;DHT22;10108;50.142;8.724;2023-04-25T05:35:53;9.60;99.90
19892;DHT22;10108;50.142;8.724;2023-04-25T05:38:19;9.60;99.90
19892;DHT22;10108;50.142;8.724;2023-04-25T05:41:23;9.60;99.90
19892;DHT22;10108;50.142;8.724;2023-04-25T05:43:57;9.60;99.90
19892;DHT22;10108;50.142;8.724;2023-04-25T05:46:28;9.60;99.90
19892;DHT22;10108;50.142;8.724;2023-04-25T05:49:09;9.60;99.90
19892;DHT22;10108;50.142;8.724;2023-04-25T05:51:55;9.60;99.90
19892;DHT22;10108;50.142;8.724;2023-04-25T05:54:42;9.60;99.90
19892;DHT22;10108;50.142;8.724;2023-04-25T05:57:08;9.60;99.90
19892;DHT22;10108;50.142;8.724;2023-04-25T05:59:34;9.60;99.90
19892;DHT22;10108;50.142;8.724;2023-04-25T06:02:01;9.70;99.90
19892;DHT22;10108;50.142;8.724;2023-04-25T06:04:28;9.70;99.90
19892;DHT22;10108;50.142;8.724;2023-04-25T06:06:54;9.80;99.90
19892;DHT22;10108;50.142;8.724;2023-04-25T06:09:22;9.90;99.90
19892;DHT22;10108;50.142;8.724;2023-04-25T06:11:48;9.90;99.90
19892;DHT22;10108;50.142;8.724;2023-04-25T06:14:14;9.80;99.90
19892;DHT22;10108;50.142;8.724;2023-04-25T06:16:45;9.80;99.90
19892;DHT22;10108;50.142;8.724;2023-04-25T06:19:12;9.80;99.90
19892;DHT22;10108;50.142;8.724;2023-04-25T06:21:38;9.80;99.90
19892;DHT22;10108;50.142;8.724;2023-04-25T06:24:04;9.90;99.90
19892;DHT22;10108;50.142;8.724;2023-04-25T06:26:30;10.00;99.90
19892;DHT22;10108;50.142;8.724;2023-04-25T06:28:57;10.00;99.90
19892;DHT22;10108;50.142;8.724;2023-04-25T06:31:23;10.00;99.90
19892;DHT22;10108;50.142;8.724;2023-04-25T06:33:50;10.00;99.90
19892;DHT22;10108;50.142;8.724;2023-04-25T06:36:16;10.00;99.90
19892;DHT22;10108;50.142;8.724;2023-04-25T06:38:44;10.00;99.90
19892;DHT22;10108;50.142;8.724;2023-04-25T06:41:11;10.00;99.90
19892;DHT22;10108;50.142;8.724;2023-04-25T06:43:37;10.00;99.90
19892;DHT22;10108;50.142;8.724;2023-04-25T06:46:15;10.00;99.90
19892;DHT22;10108;50.142;8.724;2023-04-25T06:48:44;10.00;99.90
19892;DHT22;10108;50.142;8.724;2023-04-25T06:51:11;10.00;99.90
19892;DHT22;10108;50.142;8.724;2023-04-25T06:53:40;10.10;99.90
19892;DHT22;10108;50.142;8.724;2023-04-25T06:56:09;10.10;99.90
19892;DHT22;10108;50.142;8.724;2023-04-25T06:58:47;10.10;99.90
19892;DHT22;10108;50.142;8.724;2023-04-25T07:01:20;10.20;99.90
19892;DHT22;10108;50.142;8.724;2023-04-25T07:03:46;10.20;99.90
19892;DHT22;10108;50.142;8.724;2023-04-25T07:06:17;10.20;99.90
19892;DHT22;10108;50.142;8.724;2023-04-25T07:08:43;10.20;99.90
19892;DHT22;10108;50.142;8.724;2023-04-25T07:11:09;10.20;99.90
19892;DHT22;10108;50.142;8.724;2023-04-25T07:13:36;10.20;99.90
19892;DHT22;10108;50.142;8.724;2023-04-25T07:16:02;10.10;99.90
19892;DHT22;10108;50.142;8.724;2023-04-25T07:18:30;10.10;99.90
19892;DHT22;10108;50.142;8.724;2023-04-25T07:20:57;10.20;99.90
19892;DHT22;10108;50.142;8.724;2023-04-25T07:23:23;10.30;99.90
19892;DHT22;10108;50.142;8.724;2023-04-25T07:25:50;10.30;99.90
19892;DHT22;10108;50.142;8.724;2023-04-25T07:28:20;10.50;99.90
19892;DHT22;10108;50.142;8.724;2023-04-25T07:30:47;10.50;99.90
19892;DHT22;10108;50.142;8.724;2023-04-25T07:33:13;10.60;99.90
19892;DHT22;10108;50.142;8.724;2023-04-25T07:35:39;10.70;99.90
19892;DHT22;10108;50.142;8.724;2023-04-25T07:38:06;10.70;99.90
19892;DHT22;10108;50.142;8.724;2023-04-25T07:40:32;10.70;99.90
19892;DHT22;10108;50.142;8.724;2023-04-25T07:43:04;10.60;99.90
19892;DHT22;10108;50.142;8.724;2023-04-25T07:45:37;10.50;99.90
19892;DHT22;10108;50.142;8.724;2023-04-25T07:48:03;10.50;99.90
19892;DHT22;10108;50.142;8.724;2023-04-25T07:50:32;10.50;99.90
19892;DHT22;10108;50.142;8.724;2023-04-25T07:52:58;10.50;99.90
19892;DHT22;10108;50.142;8.724;2023-04-25T07:55:32;10.60;99.90
19892;DHT22;10108;50.142;8.724;2023-04-25T07:58:07;10.70;99.90
19892;DHT22;10108;50.142;8.724;2023-04-25T08:00:36;10.80;99.90
19892;DHT22;10108;50.142;8.724;2023-04-25T08:03:25;10.80;99.90
19892;DHT22;10108;50.142;8.724;2023-04-25T08:05:52;10.90;99.90
19892;DHT22;10108;50.142;8.724;2023-04-25T08:08:19;10.90;99.90
19892;DHT22;10108;50.142;8.724;2023-04-25T08:10:45;11.00;99.90
19892;DHT22;10108;50.142;8.724;2023-04-25T08:13:15;11.00;99.90
19892;DHT22;10108;50.142;8.724;2023-04-25T08:15:41;11.00;99.90
19892;DHT22;10108;50.142;8.724;2023-04-25T08:18:07;11.10;99.90
19892;DHT22;10108;50.142;8.724;2023-04-25T08:20:33;11.10;99.90
19892;DHT22;10108;50.142;8.724;2023-04-25T08:23:02;11.10;99.90
19892;DHT22;10108;50.142;8.724;2023-04-25T08:25:39;11.20;99.90
19892;DHT22;10108;50.142;8.724;2023-04-25T08:28:07;11.10;99.90
19892;DHT22;10108;50.142;8.724;2023-04-25T08:30:33;11.00;99.90
19892;DHT22;10108;50.142;8.724;2023-04-25T08:32:59;11.00;99.90
19892;DHT22;10108;50.142;8.724;2023-04-25T08:35:47;11.00;99.90
19892;DHT22;10108;50.142;8.724;2023-04-25T08:38:14;10.90;99.90
19892;DHT22;10108;50.142;8.724;2023-04-25T08:40:40;10.80;99.90
19892;DHT22;10108;50.142;8.724;2023-04-25T08:43:14;10.80;99.90
19892;DHT22;10108;50.142;8.724;2023-04-25T08:45:42;10.90;99.90
19892;DHT22;10108;50.142;8.724;2023-04-25T08:48:12;10.80;99.90
19892;DHT22;10108;50.142;8.724;2023-04-25T08:50:50;10.80;99.90
19892;DHT22;10108;50.142;8.724;2023-04-25T08:53:21;10.80;99.90
19892;DHT22;10108;50.142;8.724;2023-04-25T08:55:48;10.90;99.90
19892;DHT22;10108;50.142;8.724;2023-04-25T08:58:16;10.90;99.90
19892;DHT22;10108;50.142;8.724;2023-04-25T09:00:46;10.90;99.90
19892;DHT22;10108;50.142;8.724;2023-04-25T09:03:13;10.90;99.90
19892;DHT22;10108;50.142;8.724;2023-04-25T09:05:41;10.80;99.90
19892;DHT22;10108;50.142;8.724;2023-04-25T09:08:08;10.80;99.90
19892;DHT22;10108;50.142;8.724;2023-04-25T09:10:34;10.80;99.90
19892;DHT22;10108;50.142;8.724;2023-04-25T09:13:10;10.80;99.90
19892;DHT22;10108;50.142;8.724;2023-04-25T09:15:58;10.90;99.90
19892;DHT22;10108;50.142;8.724;2023-04-25T09:18:41;11.00;99.90
19892;DHT22;10108;50.142;8.724;2023-04-25T09:21:10;11.20;99.90
19892;DHT22;10108;50.142;8.724;2023-04-25T09:23:47;11.30;99.90
19892;DHT22;10108;50.142;8.724;2023-04-25T09:26:19;11.40;99.90
19892;DHT22;10108;50.142;8.724;2023-04-25T09:28:46;11.60;99.90
19892;DHT22;10108;50.142;8.724;2023-04-25T09:31:22;11.70;99.90
19892;DHT22;10108;50.142;8.724;2023-04-25T09:34:01;11.80;99.90
19892;DHT22;10108;50.142;8.724;2023-04-25T09:36:30;11.80;99.90
19892;DHT22;10108;50.142;8.724;2023-04-25T09:39:02;11.80;99.90
19892;DHT22;10108;50.142;8.724;2023-04-25T09:41:32;11.80;99.90
19892;DHT22;10108;50.142;8.724;2023-04-25T09:44:03;11.80;99.90
19892;DHT22;10108;50.142;8.724;2023-04-25T09:46:34;11.80;99.90
19892;DHT22;10108;50.142;8.724;2023-04-25T09:49:06;11.80;99.90
19892;DHT22;10108;50.142;8.724;2023-04-25T09:51:56;11.80;99.90
19892;DHT22;10108;50.142;8.724;2023-04-25T09:54:24;11.90;99.90
19892;DHT22;10108;50.142;8.724;2023-04-25T09:56:59;11.90;99.90
19892;DHT22;10108;50.142;8.724;2023-04-25T09:59:30;11.90;99.90
19892;DHT22;10108;50.142;8.724;2023-04-25T10:01:58;11.90;99.90
19892;DHT22;10108;50.142;8.724;2023-04-25T10:04:34;12.00;99.90
19892;DHT22;10108;50.142;8.724;2023-04-25T10:07:11;12.00;99.90
19892;DHT22;10108;50.142;8.724;2023-04-25T10:09:39;12.20;99.90
19892;DHT22;10108;50.142;8.724;2023-04-25T10:12:07;12.20;99.90
19892;DHT22;10108;50.142;8.724;2023-04-25T10:14:34;12.30;99.90
19892;DHT22;10108;50.142;8.724;2023-04-25T10:17:01;12.30;99.90
19892;DHT22;10108;50.142;8.724;2023-04-25T10:19:27;12.30;99.90
19892;DHT22;10108;50.142;8.724;2023-04-25T10:22:07;12.20;99.90
19892;DHT22;10108;50.142;8.724;2023-04-25T10:24:35;12.20;99.90
19892;DHT22;10108;50.142;8.724;2023-04-25T10:27:02;12.20;99.90
19892;DHT22;10108;50.142;8.724;2023-04-25T10:29:31;12.10;99.90
19892;DHT22;10108;50.142;8.724;2023-04-25T10:31:57;12.00;99.90
19892;DHT22;10108;50.142;8.724;2023-04-25T10:34:25;12.00;99.90
19892;DHT22;10108;50.142;8.724;2023-04-25T10:37:03;12.00;99.90
19892;DHT22;10108;50.142;8.724;2023-04-25T10:39:29;12.00;99.90
19892;DHT22;10108;50.142;8.724;2023-04-25T10:41:58;12.00;99.90
19892;DHT22;10108;50.142;8.724;2023-04-25T10:44:28;11.90;99.90
19892;DHT22;10108;50.142;8.724;2023-04-25T10:46:56;11.90;99.90
19892;DHT22;10108;50.142;8.724;2023-04-25T10:49:34;11.90;99.90
19892;DHT22;10108;50.142;8.724;2023-04-25T10:57:40;11.70;99.90
19892;DHT22;10108;50.142;8.724;2023-04-25T11:00:15;11.70;99.90
19892;DHT22;10108;50.142;8.724;2023-04-25T11:02:43;11.70;99.90
19892;DHT22;10108;50.142;8.724;2023-04-25T11:05:19;11.70;99.90
19892;DHT22;10108;50.142;8.724;2023-04-25T11:07:52;11.70;99.90
19892;DHT22;10108;50.142;8.724;2023-04-25T11:10:19;11.70;99.90
19892;DHT22;10108;50.142;8.724;2023-04-25T11:12:46;11.80;99.90
19892;DHT22;10108;50.142;8.724;2023-04-25T11:15:13;11.90;99.90
19892;DHT22;10108;50.142;8.724;2023-04-25T11:17:39;11.90;99.90
19892;DHT22;10108;50.142;8.724;2023-04-25T11:20:07;12.00;99.90
19892;DHT22;10108;50.142;8.724;2023-04-25T11:22:46;11.90;99.90
19892;DHT22;10108;50.142;8.724;2023-04-25T11:25:14;11.90;99.90
19892;DHT22;10108;50.142;8.724;2023-04-25T11:27:54;11.90;99.90
19892;DHT22;10108;50.142;8.724;2023-04-25T11:30:22;11.90;99.90
19892;DHT22;10108;50.142;8.724;2023-04-25T11:32:48;11.90;99.90
19892;DHT22;10108;50.142;8.724;2023-04-25T11:35:15;11.90;99.90
19892;DHT22;10108;50.142;8.724;2023-04-25T11:37:42;11.90;99.90
19892;DHT22;10108;50.142;8.724;2023-04-25T11:40:09;12.00;99.90
19892;DHT22;10108;50.142;8.724;2023-04-25T11:42:41;12.00;99.90
19892;DHT22;10108;50.142;8.724;2023-04-25T11:45:09;12.10;99.90
19892;DHT22;10108;50.142;8.724;2023-04-25T11:47:36;12.20;99.90
19892;DHT22;10108;50.142;8.724;2023-04-25T11:50:05;12.30;99.90
19892;DHT22;10108;50.142;8.724;2023-04-25T11:52:47;12.40;99.90
19892;DHT22;10108;50.142;8.724;2023-04-25T11:55:16;12.50;99.90
19892;DHT22;10108;50.142;8.724;2023-04-25T11:57:43;12.50;99.20
19892;DHT22;10108;50.142;8.724;2023-04-25T12:02:41;12.40;99.90
19892;DHT22;10108;50.142;8.724;2023-04-25T12:05:09;12.40;99.90
19892;DHT22;10108;50.142;8.724;2023-04-25T12:07:36;12.30;99.90
19892;DHT22;10108;50.142;8.724;2023-04-25T12:10:11;12.20;99.90
19892;DHT22;10108;50.142;8.724;2023-04-25T12:12:41;12.20;99.90
19892;DHT22;10108;50.142;8.724;2023-04-25T12:15:12;12.10;98.60
19892;DHT22;10108;50.142;8.724;2023-04-25T12:17:42;12.00;97.60
19892;DHT22;10108;50.142;8.724;2023-04-25T12:20:14;11.90;99.30
19892;DHT22;10108;50.142;8.724;2023-04-25T12:22:41;11.80;99.90
19892;DHT22;10108;50.142;8.724;2023-04-25T12:25:14;11.80;99.90
19892;DHT22;10108;50.142;8.724;2023-04-25T12:28:21;11.80;99.90
19892;DHT22;10108;50.142;8.724;2023-04-25T12:31:00;11.80;99.90
19892;DHT22;10108;50.142;8.724;2023-04-25T12:33:37;11.80;99.90
19892;DHT22;10108;50.142;8.724;2023-04-25T12:36:04;11.80;99.90
19892;DHT22;10108;50.142;8.724;2023-04-25T12:38:39;11.80;99.90
19892;DHT22;10108;50.142;8.724;2023-04-25T12:41:05;11.90;99.90
19892;DHT22;10108;50.142;8.724;2023-04-25T12:43:32;11.90;99.90
19892;DHT22;10108;50.142;8.724;2023-04-25T12:45:58;12.00;99.90
19892;DHT22;10108;50.142;8.724;2023-04-25T12:48:24;12.10;99.90
19892;DHT22;10108;50.142;8.724;2023-04-25T12:50:51;12.10;99.90
19892;DHT22;10108;50.142;8.724;2023-04-25T12:53:21;12.20;99.90
19892;DHT22;10108;50.142;8.724;2023-04-25T12:55:48;12.30;99.90
19892;DHT22;10108;50.142;8.724;2023-04-25T12:58:15;12.40;99.90
19892;DHT22;10108;50.142;8.724;2023-04-25T13:00:42;12.40;99.90
19892;DHT22;10108;50.142;8.724;2023-04-25T13:03:09;12.50;99.90
19892;DHT22;10108;50.142;8.724;2023-04-25T13:05:37;12.60;99.90
19892;DHT22;10108;50.142;8.724;2023-04-25T13:08:03;12.70;99.90
19892;DHT22;10108;50.142;8.724;2023-04-25T13:10:30;12.80;99.90
19892;DHT22;10108;50.142;8.724;2023-04-25T13:12:56;12.70;99.90
19892;DHT22;10108;50.142;8.724;2023-04-25T13:15:23;12.70;99.90
19892;DHT22;10108;50.142;8.724;2023-04-25T13:17:49;12.60;99.60
19892;DHT22;10108;50.142;8.724;2023-04-25T13:20:15;12.50;99.90
19892;DHT22;10108;50.142;8.724;2023-04-25T13:22:42;12.50;99.50
19892;DHT22;10108;50.142;8.724;2023-04-25T13:25:08;12.40;99.90
19892;DHT22;10108;50.142;8.724;2023-04-25T13:27:36;12.40;99.90
19892;DHT22;10108;50.142;8.724;2023-04-25T13:30:03;12.30;99.90
19892;DHT22;10108;50.142;8.724;2023-04-25T13:32:34;12.30;99.90
19892;DHT22;10108;50.142;8.724;2023-04-25T13:35:03;12.30;99.80
19892;DHT22;10108;50.142;8.724;2023-04-25T13:37:29;12.30;99.90
19892;DHT22;10108;50.142;8.724;2023-04-25T13:39:56;12.30;99.90
19892;DHT22;10108;50.142;8.724;2023-04-25T13:42:23;12.30;99.90
19892;DHT22;10108;50.142;8.724;2023-04-25T13:44:50;12.30;99.90
19892;DHT22;10108;50.142;8.724;2023-04-25T13:47:16;12.30;99.90
19892;DHT22;10108;50.142;8.724;2023-04-25T13:49:42;12.30;99.90
19892;DHT22;10108;50.142;8.724;2023-04-25T13:52:08;12.40;97.40
19892;DHT22;10108;50.142;8.724;2023-04-25T13:54:34;12.40;98.50
19892;DHT22;10108;50.142;8.724;2023-04-25T13:57:00;12.40;99.90
19892;DHT22;10108;50.142;8.724;2023-04-25T13:59:27;12.50;97.70
19892;DHT22;10108;50.142;8.724;2023-04-25T14:01:56;12.50;97.90
19892;DHT22;10108;50.142;8.724;2023-04-25T14:04:47;12.60;98.70
19892;DHT22;10108;50.142;8.724;2023-04-25T14:07:14;12.60;97.60
19892;DHT22;10108;50.142;8.724;2023-04-25T14:10:09;12.60;98.40
19892;DHT22;10108;50.142;8.724;2023-04-25T14:13:02;12.70;98.20
19892;DHT22;10108;50.142;8.724;2023-04-25T14:15:32;12.80;97.30
19892;DHT22;10108;50.142;8.724;2023-04-25T14:17:59;12.90;98.00
19892;DHT22;10108;50.142;8.724;2023-04-25T14:20:26;12.90;98.90
19892;DHT22;10108;50.142;8.724;2023-04-25T14:23:17;13.00;99.90
19892;DHT22;10108;50.142;8.724;2023-04-25T14:25:44;12.90;97.00
19892;DHT22;10108;50.142;8.724;2023-04-25T14:28:35;12.80;99.30
19892;DHT22;10108;50.142;8.724;2023-04-25T14:31:01;12.80;95.00
19892;DHT22;10108;50.142;8.724;2023-04-25T14:33:27;12.70;94.20
19892;DHT22;10108;50.142;8.724;2023-04-25T14:35:53;12.70;97.10
19892;DHT22;10108;50.142;8.724;2023-04-25T14:38:20;12.70;95.50
19892;DHT22;10108;50.142;8.724;2023-04-25T14:40:51;12.70;95.70
19892;DHT22;10108;50.142;8.724;2023-04-25T14:43:17;12.70;97.00
19892;DHT22;10108;50.142;8.724;2023-04-25T14:45:44;12.70;94.90
19892;DHT22;10108;50.142;8.724;2023-04-25T14:48:10;12.70;96.40
19892;DHT22;10108;50.142;8.724;2023-04-25T14:50:36;12.80;97.70
19892;DHT22;10108;50.142;8.724;2023-04-25T14:53:02;12.80;96.90
19892;DHT22;10108;50.142;8.724;2023-04-25T14:55:28;12.80;96.60
19892;DHT22;10108;50.142;8.724;2023-04-25T14:57:55;12.90;95.30
19892;DHT22;10108;50.142;8.724;2023-04-25T15:00:21;12.90;95.20
19892;DHT22;10108;50.142;8.724;2023-04-25T15:02:48;12.90;95.00
19892;DHT22;10108;50.142;8.724;2023-04-25T15:05:14;12.80;95.70
19892;DHT22;10108;50.142;8.724;2023-04-25T15:07:41;12.80;94.00
19892;DHT22;10108;50.142;8.724;2023-04-25T15:10:07;12.70;95.00
19892;DHT22;10108;50.142;8.724;2023-04-25T15:12:39;12.70;95.80
19892;DHT22;10108;50.142;8.724;2023-04-25T15:15:07;12.70;95.70
19892;DHT22;10108;50.142;8.724;2023-04-25T15:17:41;12.70;95.50
19892;DHT22;10108;50.142;8.724;2023-04-25T15:20:09;12.70;96.60
19892;DHT22;10108;50.142;8.724;2023-04-25T15:22:36;12.60;95.80
19892;DHT22;10108;50.142;8.724;2023-04-25T15:25:03;12.60;96.10
19892;DHT22;10108;50.142;8.724;2023-04-25T15:27:29;12.60;95.50
19892;DHT22;10108;50.142;8.724;2023-04-25T15:29:56;12.60;94.40
19892;DHT22;10108;50.142;8.724;2023-04-25T15:32:22;12.70;93.30
19892;DHT22;10108;50.142;8.724;2023-04-25T15:34:49;12.70;93.00
19892;DHT22;10108;50.142;8.724;2023-04-25T15:37:15;12.70;93.50
19892;DHT22;10108;50.142;8.724;2023-04-25T15:39:43;12.70;93.20
19892;DHT22;10108;50.142;8.724;2023-04-25T15:42:09;12.80;93.10
19892;DHT22;10108;50.142;8.724;2023-04-25T15:44:35;12.80;93.30
19892;DHT22;10108;50.142;8.724;2023-04-25T15:47:02;12.90;93.60
19892;DHT22;10108;50.142;8.724;2023-04-25T15:49:28;12.90;93.60
19892;DHT22;10108;50.142;8.724;2023-04-25T15:51:54;12.90;94.10
19892;DHT22;10108;50.142;8.724;2023-04-25T15:54:20;12.90;98.00
19892;DHT22;10108;50.142;8.724;2023-04-25T15:56:47;12.90;96.40
19892;DHT22;10108;50.142;8.724;2023-04-25T15:59:13;12.90;95.40